Time;durP1;ratioP1;P1;durP2;ratioP2;P2;SDS_P1;SDS_P2;PMS_P1;PMS_P2;Temp;Humidity;BMP_temperature;BMP_pressure;BME280_temperature;BME280_humidity;BME280_pressure;Samples;Min_cycle;Max_cycle;Signal;HPM_P1;HPM_P2
2021/06/18 00:00:28;;;;;;;7.50;6.65;;;16.20;99.90;;;;;;5015735;28;20201;-88
2021/06/18 00:02:56;;;;;;;8.40;6.80;;;16.20;99.90;;;;;;5015929;28;20046;-88
2021/06/18 00:05:25;;;;;;;8.32;6.93;;;16.20;99.90;;;;;;5016519;28;20445;-89
2021/06/18 00:07:52;;;;;;;7.75;6.30;;;16.40;99.90;;;;;;5015901;28;20053;-88
2021/06/18 00:10:26;;;;;;;10.65;7.10;;;16.40;99.90;;;;;;5015850;28;20487;-89
2021/06/18 00:12:53;;;;;;;7.80;6.57;;;16.30;99.90;;;;;;5015764;28;20403;-89
2021/06/18 00:15:20;;;;;;;9.52;7.03;;;16.20;99.90;;;;;;5015279;28;20057;-89
2021/06/18 00:17:47;;;;;;;9.50;7.03;;;16.10;99.90;;;;;;5015796;28;20129;-89
2021/06/18 00:20:14;;;;;;;8.98;7.25;;;16.00;99.90;;;;;;5015500;28;20050;-89
2021/06/18 00:22:42;;;;;;;7.97;7.03;;;15.90;99.90;;;;;;5015384;28;20124;-89
2021/06/18 00:25:10;;;;;;;7.57;6.90;;;15.90;99.90;;;;;;5014832;28;20141;-89
2021/06/18 00:27:37;;;;;;;6.82;6.22;;;15.90;99.90;;;;;;5015495;28;20516;-89
2021/06/18 00:30:06;;;;;;;7.93;6.82;;;16.00;99.90;;;;;;5015712;28;20414;-89
2021/06/18 00:32:33;;;;;;;7.13;6.47;;;16.00;99.90;;;;;;5015593;28;20060;-88
2021/06/18 00:34:59;;;;;;;7.88;7.13;;;16.10;99.90;;;;;;5019504;28;20046;-88
2021/06/18 00:37:26;;;;;;;9.07;7.40;;;16.10;99.90;;;;;;5032441;28;20122;-89
2021/06/18 00:39:55;;;;;;;8.90;6.90;;;16.20;99.90;;;;;;5024581;28;20468;-88
2021/06/18 00:42:22;;;;;;;8.65;7.40;;;16.10;99.90;;;;;;5015065;28;20084;-89
2021/06/18 00:44:48;;;;;;;7.35;6.75;;;16.10;99.90;;;;;;5015253;28;20046;-89
2021/06/18 00:47:22;;;;;;;7.55;6.95;;;15.90;99.90;;;;;;5015452;28;20605;-89
2021/06/18 00:49:51;;;;;;;8.20;7.50;;;15.70;99.90;;;;;;5017770;28;20042;-89
2021/06/18 00:52:18;;;;;;;7.97;7.38;;;15.70;99.90;;;;;;5018340;28;20060;-88
2021/06/18 00:54:46;;;;;;;7.90;7.15;;;15.70;99.90;;;;;;5018383;28;20056;-89
2021/06/18 00:57:14;;;;;;;7.88;7.18;;;15.70;99.90;;;;;;5017695;28;20512;-88
2021/06/18 00:59:40;;;;;;;8.93;7.45;;;15.80;99.90;;;;;;5018315;28;20048;-89
2021/06/18 01:02:09;;;;;;;8.43;6.80;;;15.90;99.90;;;;;;5018235;28;20057;-88
2021/06/18 01:04:37;;;;;;;7.60;6.90;;;15.90;99.90;;;;;;5017821;28;20466;-88
2021/06/18 01:07:10;;;;;;;8.25;7.43;;;15.80;99.90;;;;;;5017893;28;20064;-89
2021/06/18 01:10:04;;;;;;;11.87;7.10;;;15.70;99.90;;;;;;5017801;28;20060;-88
2021/06/18 01:13:01;;;;;;;8.05;7.32;;;15.80;99.90;;;;;;5017967;28;20055;-88
2021/06/18 01:15:48;;;;;;;7.88;7.07;;;15.70;99.90;;;;;;5010349;28;20061;-89
2021/06/18 01:18:22;;;;;;;8.30;7.38;;;15.60;99.90;;;;;;5017951;28;20046;-90
2021/06/18 01:21:00;;;;;;;7.75;6.95;;;15.40;99.90;;;;;;5018147;28;20060;-89
2021/06/18 01:23:29;;;;;;;7.93;7.32;;;15.40;99.90;;;;;;5017817;28;20607;-89
2021/06/18 01:26:04;;;;;;;10.60;7.80;;;15.30;99.90;;;;;;5018021;28;20486;-88
2021/06/18 01:28:43;;;;;;;9.90;8.90;;;15.10;99.90;;;;;;5017934;28;20049;-89
2021/06/18 01:31:14;;;;;;;8.95;8.02;;;15.10;99.90;;;;;;5017639;28;20056;-88
2021/06/18 01:33:43;;;;;;;9.68;8.23;;;15.20;99.90;;;;;;5017866;28;20049;-88
2021/06/18 01:36:13;;;;;;;9.88;8.57;;;15.20;99.90;;;;;;5017452;28;20080;-89
2021/06/18 01:38:46;;;;;;;9.13;7.88;;;15.30;99.90;;;;;;5017727;28;20116;-89
2021/06/18 01:41:18;;;;;;;9.95;8.65;;;15.30;99.90;;;;;;5017502;28;20045;-89
2021/06/18 01:43:47;;;;;;;9.40;8.15;;;15.20;99.90;;;;;;5017839;28;20088;-89
2021/06/18 01:46:19;;;;;;;9.43;8.40;;;15.20;99.90;;;;;;5017402;28;20053;-88
2021/06/18 01:48:50;;;;;;;9.65;8.75;;;15.10;99.90;;;;;;5013847;28;20058;-88
2021/06/18 01:51:19;;;;;;;9.10;8.32;;;15.10;99.90;;;;;;5013872;28;20117;-88
2021/06/18 01:53:48;;;;;;;9.70;8.90;;;14.90;99.90;;;;;;5015773;28;20057;-88
2021/06/18 01:56:18;;;;;;;9.63;8.63;;;14.80;99.90;;;;;;5029964;28;20137;-88
2021/06/18 01:58:48;;;;;;;8.40;7.70;;;14.90;99.90;;;;;;5018663;28;20065;-88
2021/06/18 02:01:19;;;;;;;9.20;8.38;;;14.90;99.90;;;;;;5013396;28;20141;-89
2021/06/18 02:03:47;;;;;;;9.45;8.60;;;15.00;99.90;;;;;;5013716;28;20053;-88
2021/06/18 02:06:16;;;;;;;12.43;9.05;;;15.00;99.90;;;;;;5013758;28;20609;-88
2021/06/18 02:08:46;;;;;;;10.90;9.27;;;14.90;99.90;;;;;;5013643;28;20136;-88
2021/06/18 02:11:14;;;;;;;9.13;8.32;;;14.80;99.90;;;;;;5013433;28;20041;-88
2021/06/18 02:13:42;;;;;;;10.20;9.05;;;14.80;99.90;;;;;;5013524;28;20498;-89
2021/06/18 02:16:09;;;;;;;12.25;9.70;;;14.70;99.90;;;;;;5012949;28;20141;-89
2021/06/18 02:18:37;;;;;;;10.65;9.40;;;14.70;99.90;;;;;;5013433;28;20050;-90
2021/06/18 02:21:05;;;;;;;10.38;9.02;;;14.60;99.90;;;;;;5012783;28;20053;-89
2021/06/18 02:23:33;;;;;;;11.63;9.85;;;14.50;99.90;;;;;;5013410;28;20046;-89
2021/06/18 02:26:02;;;;;;;10.38;9.38;;;14.50;99.90;;;;;;5013232;28;20056;-89
2021/06/18 02:28:29;;;;;;;9.73;8.85;;;14.50;99.90;;;;;;5013322;28;20064;-89
2021/06/18 02:30:56;;;;;;;10.75;9.85;;;14.50;99.90;;;;;;5013314;28;20140;-89
2021/06/18 02:33:23;;;;;;;11.18;9.45;;;14.40;99.90;;;;;;5013096;28;20054;-88
2021/06/18 02:35:50;;;;;;;10.27;9.27;;;14.50;99.90;;;;;;5012795;28;20050;-89
2021/06/18 02:38:17;;;;;;;10.55;9.48;;;14.60;99.90;;;;;;5013161;28;20069;-89
2021/06/18 02:40:44;;;;;;;10.63;9.73;;;14.60;99.90;;;;;;5012907;28;20145;-88
2021/06/18 02:43:11;;;;;;;10.35;9.40;;;14.60;99.90;;;;;;5013053;28;20072;-89
2021/06/18 02:45:39;;;;;;;10.00;9.20;;;14.60;99.90;;;;;;5012965;28;20129;-88
2021/06/18 02:48:13;;;;;;;10.00;8.63;;;14.70;99.90;;;;;;5012824;28;20522;-89
2021/06/18 02:50:42;;;;;;;9.95;9.07;;;14.70;99.90;;;;;;5013019;28;20053;-89
2021/06/18 02:53:31;;;;;;;9.43;8.70;;;14.70;99.90;;;;;;5012796;28;20046;-89
2021/06/18 02:56:05;;;;;;;10.27;9.45;;;14.60;99.90;;;;;;5012516;28;20137;-88
2021/06/18 02:58:50;;;;;;;10.68;9.68;;;14.50;99.90;;;;;;5013042;28;20165;-89
2021/06/18 03:01:19;;;;;;;10.25;9.30;;;14.40;99.90;;;;;;5012561;28;20056;-89
2021/06/18 03:03:50;;;;;;;12.25;9.35;;;14.40;99.90;;;;;;5013016;28;20050;-89
2021/06/18 03:06:17;;;;;;;11.30;9.88;;;14.30;99.90;;;;;;5012868;28;20048;-89
2021/06/18 03:08:50;;;;;;;15.90;10.88;;;14.30;99.90;;;;;;5012861;28;20487;-88
2021/06/18 03:11:21;;;;;;;11.88;10.77;;;14.10;99.90;;;;;;5014075;28;20045;-89
2021/06/18 03:13:54;;;;;;;11.23;10.13;;;14.10;99.90;;;;;;5020766;28;20060;-88
2021/06/18 03:16:22;;;;;;;12.45;10.68;;;14.00;99.90;;;;;;5036364;28;20050;-89
2021/06/18 03:18:53;;;;;;;11.45;10.35;;;14.00;99.90;;;;;;5014363;28;20068;-88
2021/06/18 03:21:21;;;;;;;17.05;11.02;;;14.00;99.90;;;;;;5012368;28;20089;-89
2021/06/18 03:23:48;;;;;;;12.00;10.82;;;13.90;99.90;;;;;;5013701;28;20089;-88
2021/06/18 03:26:17;;;;;;;13.35;11.85;;;14.00;99.90;;;;;;5012436;28;20080;-88
2021/06/18 03:28:44;;;;;;;13.32;12.13;;;13.90;99.90;;;;;;5012311;28;20049;-88
2021/06/18 03:31:12;;;;;;;13.43;12.20;;;13.80;99.90;;;;;;5012271;28;20491;-89
2021/06/18 03:33:41;;;;;;;13.90;12.50;;;13.80;99.90;;;;;;5015838;28;20081;-88
2021/06/18 03:36:09;;;;;;;13.82;11.82;;;13.80;99.90;;;;;;5016068;28;20050;-88
2021/06/18 03:38:37;;;;;;;14.23;12.82;;;13.80;99.90;;;;;;5016312;28;20410;-89
2021/06/18 03:41:05;;;;;;;13.38;12.00;;;13.70;99.90;;;;;;5017184;28;20400;-88
2021/06/18 03:43:32;;;;;;;13.52;12.23;;;13.70;99.90;;;;;;5016204;28;20092;-89
2021/06/18 03:46:02;;;;;;;14.02;12.73;;;13.80;99.90;;;;;;5016215;28;20054;-89
2021/06/18 03:48:31;;;;;;;12.88;11.60;;;13.90;99.90;;;;;;5015919;28;20050;-89
2021/06/18 03:50:59;;;;;;;11.75;10.55;;;13.90;99.90;;;;;;5017857;28;20513;-89
2021/06/18 03:53:26;;;;;;;11.50;10.32;;;14.00;99.90;;;;;;5015899;28;20176;-89
2021/06/18 03:55:53;;;;;;;14.65;11.23;;;14.10;99.90;;;;;;5015780;28;20052;-89
2021/06/18 03:58:21;;;;;;;14.13;10.80;;;14.10;99.90;;;;;;5015836;28;20406;-89
2021/06/18 04:00:51;;;;;;;14.05;10.30;;;14.10;99.90;;;;;;5016125;28;20402;-88
2021/06/18 04:03:20;;;;;;;11.70;10.43;;;14.30;99.90;;;;;;5015898;28;20077;-89
2021/06/18 04:05:50;;;;;;;15.30;10.80;;;14.40;99.90;;;;;;5016227;28;20060;-89
2021/06/18 04:08:20;;;;;;;15.35;10.80;;;14.50;99.90;;;;;;5017030;28;20133;-89
2021/06/18 04:10:47;;;;;;;10.85;9.85;;;14.60;99.90;;;;;;5016062;28;20491;-89
2021/06/18 04:13:14;;;;;;;11.40;10.30;;;14.60;99.90;;;;;;5016987;28;20054;-89
2021/06/18 04:15:41;;;;;;;12.30;9.82;;;14.70;99.90;;;;;;5015752;28;20045;-89
2021/06/18 04:18:09;;;;;;;13.80;9.95;;;14.80;99.90;;;;;;5015685;28;20045;-89
2021/06/18 04:20:36;;;;;;;10.57;9.52;;;14.90;99.90;;;;;;5015998;28;20506;-89
2021/06/18 04:23:03;;;;;;;11.00;9.57;;;15.00;99.90;;;;;;5015961;28;20092;-88
2021/06/18 04:25:30;;;;;;;15.82;9.93;;;15.00;99.90;;;;;;5016128;28;20052;-88
2021/06/18 04:27:59;;;;;;;13.63;10.00;;;15.10;99.90;;;;;;5015152;28;20530;-89
2021/06/18 04:30:26;;;;;;;10.55;9.43;;;15.30;99.90;;;;;;5015655;28;20054;-88
2021/06/18 04:32:53;;;;;;;10.95;9.35;;;15.30;99.90;;;;;;5027564;28;20110;-89
2021/06/18 04:35:20;;;;;;;11.13;9.38;;;15.40;99.90;;;;;;5032788;28;20077;-88
2021/06/18 04:37:46;;;;;;;9.38;8.57;;;15.40;99.90;;;;;;5015314;28;20065;-88
2021/06/18 04:40:14;;;;;;;9.35;8.65;;;15.60;99.90;;;;;;5015170;28;20406;-88
2021/06/18 04:42:41;;;;;;;10.45;8.65;;;15.80;99.90;;;;;;5014745;28;20062;-89
2021/06/18 04:45:09;;;;;;;12.73;8.20;;;16.00;99.90;;;;;;5014854;28;20045;-88
2021/06/18 04:47:36;;;;;;;8.35;7.70;;;16.10;99.90;;;;;;5017165;28;20050;-88
2021/06/18 04:50:04;;;;;;;9.10;7.45;;;16.20;99.90;;;;;;5018648;28;20053;-88
2021/06/18 04:52:31;;;;;;;11.50;7.53;;;16.30;99.90;;;;;;5018517;28;20052;-88
2021/06/18 04:55:01;;;;;;;14.52;7.22;;;17.00;99.90;;;;;;5018283;28;20075;-89
2021/06/18 04:57:28;;;;;;;10.40;7.07;;;17.80;99.90;;;;;;5018158;28;20132;-88
2021/06/18 04:59:56;;;;;;;8.00;6.60;;;18.10;99.90;;;;;;5018786;28;20140;-88
2021/06/18 05:02:23;;;;;;;14.77;7.97;;;18.00;99.90;;;;;;5018546;28;20063;-86
2021/06/18 05:04:49;;;;;;;10.07;7.13;;;18.10;99.90;;;;;;5035732;28;20395;-89
2021/06/18 05:07:16;;;;;;;12.95;6.63;;;18.50;99.90;;;;;;5018515;28;20143;-89
2021/06/18 05:09:43;;;;;;;10.98;6.68;;;19.30;99.90;;;;;;5018735;28;20041;-89
2021/06/18 05:12:10;;;;;;;6.85;5.32;;;20.60;99.90;;;;;;5035797;28;20056;-89
2021/06/18 05:14:37;;;;;;;5.93;5.40;;;21.80;99.90;;;;;;5018438;28;20075;-89
2021/06/18 05:17:04;;;;;;;12.30;5.82;;;23.20;99.90;;;;;;5018280;28;20051;-89
2021/06/18 05:19:31;;;;;;;31.52;8.50;;;24.60;99.90;;;;;;5035441;28;20406;-89
2021/06/18 05:21:57;;;;;;;20.65;8.00;;;25.50;99.90;;;;;;5035615;28;20079;-89
2021/06/18 05:24:24;;;;;;;19.67;7.90;;;25.60;99.90;;;;;;5018121;28;20045;-89
2021/06/18 05:26:51;;;;;;;18.23;7.28;;;26.30;99.90;;;;;;5035429;28;20049;-89
2021/06/18 05:29:18;;;;;;;14.48;7.05;;;27.10;99.90;;;;;;5018095;28;20052;-87
2021/06/18 05:31:45;;;;;;;18.83;7.32;;;27.80;99.90;;;;;;5018225;28;20133;-87
2021/06/18 05:34:12;;;;;;;19.08;8.13;;;27.90;99.90;;;;;;5035396;28;20485;-87
2021/06/18 05:36:43;;;;;;;14.93;7.53;;;28.70;99.60;;;;;;5017916;28;20049;-87
2021/06/18 05:39:12;;;;;;;19.98;8.50;;;29.20;98.30;;;;;;5017788;28;20458;-89
2021/06/18 05:41:39;;;;;;;25.75;8.77;;;29.10;96.10;;;;;;5016726;28;20057;-89
2021/06/18 05:44:06;;;;;;;27.10;11.20;;;29.80;93.90;;;;;;5017243;28;20049;-88
2021/06/18 05:46:33;;;;;;;29.92;13.27;;;29.60;93.20;;;;;;5029246;28;20375;-89
2021/06/18 05:49:00;;;;;;;34.22;13.60;;;30.10;91.20;;;;;;5017459;28;20057;-88
2021/06/18 05:51:27;;;;;;;41.55;16.67;;;30.30;90.50;;;;;;5046441;28;20027;-88
2021/06/18 05:53:54;;;;;;;24.52;10.80;;;30.90;88.30;;;;;;5036762;28;20077;-88
2021/06/18 05:56:21;;;;;;;10.85;6.78;;;31.40;85.80;;;;;;5011215;28;20478;-89
2021/06/18 05:58:48;;;;;;;8.30;4.60;;;31.80;84.00;;;;;;5009006;28;20070;-89
2021/06/18 06:01:15;;;;;;;4.97;3.60;;;32.40;80.20;;;;;;5003797;28;20406;-88
2021/06/18 06:03:56;;;;;;;4.00;3.70;;;32.90;77.30;;;;;;5014804;28;20093;-89
2021/06/18 06:06:23;;;;;;;4.60;3.30;;;33.50;74.00;;;;;;5013611;28;20050;-88
2021/06/18 06:08:52;;;;;;;4.18;3.65;;;34.00;71.70;;;;;;4997444;28;20052;-86
2021/06/18 06:11:19;;;;;;;4.95;3.45;;;34.40;70.00;;;;;;4997352;28;20062;-86
2021/06/18 06:13:47;;;;;;;6.07;3.75;;;34.50;68.90;;;;;;4997087;28;20089;-86
2021/06/18 06:16:14;;;;;;;5.07;3.70;;;34.90;67.40;;;;;;4997267;28;20100;-86
2021/06/18 06:18:41;;;;;;;4.85;3.90;;;35.30;66.30;;;;;;4997181;28;20049;-87
2021/06/18 06:21:08;;;;;;;7.72;4.32;;;35.60;64.60;;;;;;4996970;28;20054;-86
2021/06/18 06:23:34;;;;;;;6.68;4.30;;;35.20;64.40;;;;;;4997430;28;20578;-86
2021/06/18 06:26:01;;;;;;;5.22;3.80;;;35.00;64.70;;;;;;4997229;28;20133;-87
2021/06/18 06:28:29;;;;;;;6.28;4.22;;;34.90;64.60;;;;;;4997184;28;20056;-87
2021/06/18 06:30:56;;;;;;;4.07;3.75;;;34.80;64.70;;;;;;4997000;28;20490;-86
2021/06/18 06:33:23;;;;;;;3.63;3.33;;;34.90;64.70;;;;;;4997190;28;20081;-86
2021/06/18 06:35:50;;;;;;;3.53;3.22;;;34.90;64.20;;;;;;5014395;28;20052;-86
2021/06/18 06:38:20;;;;;;;3.60;3.40;;;34.70;65.00;;;;;;4997288;28;20054;-87
2021/06/18 06:40:47;;;;;;;6.22;3.30;;;34.80;65.00;;;;;;4997365;28;20087;-87
2021/06/18 06:43:14;;;;;;;7.70;4.03;;;35.50;64.50;;;;;;4996934;28;20048;-87
2021/06/18 06:45:41;;;;;;;12.30;6.57;;;35.50;64.00;;;;;;4997064;28;20096;-86
2021/06/18 06:48:09;;;;;;;8.25;6.57;;;34.80;65.70;;;;;;5013436;28;20053;-86
2021/06/18 06:50:35;;;;;;;14.68;7.18;;;35.40;63.90;;;;;;5014143;28;20049;-87
2021/06/18 06:53:03;;;;;;;9.73;4.60;;;35.80;63.30;;;;;;4996728;28;20480;-86
2021/06/18 06:55:29;;;;;;;10.73;4.88;;;35.70;62.40;;;;;;4996800;28;20056;-87
2021/06/18 06:57:56;;;;;;;13.98;4.43;;;35.80;63.20;;;;;;4988681;28;20056;-87
2021/06/18 07:00:23;;;;;;;13.23;5.15;;;36.10;60.90;;;;;;4996886;28;20509;-87
2021/06/18 07:02:49;;;;;;;17.13;4.68;;;36.00;63.40;;;;;;4995728;28;20060;-88
2021/06/18 07:05:17;;;;;;;11.95;4.10;;;36.60;61.50;;;;;;4996308;28;20557;-87
2021/06/18 07:07:43;;;;;;;13.52;5.40;;;37.40;59.30;;;;;;4995544;28;20057;-87
2021/06/18 07:10:11;;;;;;;17.58;5.53;;;37.90;58.70;;;;;;5004269;28;20089;-87
2021/06/18 07:12:38;;;;;;;18.75;5.25;;;37.90;58.60;;;;;;5036344;28;20029;-87
2021/06/18 07:15:07;;;;;;;18.52;5.22;;;38.10;57.00;;;;;;4999631;28;20046;-87
2021/06/18 07:17:34;;;;;;;26.80;6.00;;;37.60;58.50;;;;;;4996506;28;20056;-87
2021/06/18 07:20:02;;;;;;;12.63;4.57;;;37.40;57.10;;;;;;4996364;28;20046;-87
2021/06/18 07:22:30;;;;;;;11.48;5.20;;;37.70;57.30;;;;;;4996366;28;20050;-88
2021/06/18 07:24:58;;;;;;;18.67;4.93;;;38.10;57.90;;;;;;4996515;28;20150;-87
2021/06/18 07:27:26;;;;;;;20.67;5.70;;;38.50;56.80;;;;;;4995355;28;20056;-87
2021/06/18 07:29:54;;;;;;;6.95;4.65;;;39.20;56.50;;;;;;5013741;28;20050;-88
2021/06/18 07:32:24;;;;;;;10.63;4.90;;;39.30;57.10;;;;;;5018754;28;20053;-89
2021/06/18 07:34:51;;;;;;;14.02;5.03;;;38.90;57.00;;;;;;5032591;28;20056;-88
2021/06/18 07:37:18;;;;;;;8.70;4.55;;;39.30;56.40;;;;;;5014212;28;20053;-88
2021/06/18 07:39:47;;;;;;;8.95;4.32;;;39.50;56.50;;;;;;5016924;28;20128;-88
2021/06/18 07:42:29;;;;;;;8.67;3.97;;;39.60;54.60;;;;;;5018532;28;20121;-88
2021/06/18 07:44:56;;;;;;;6.07;3.83;;;40.00;55.20;;;;;;5016525;28;20075;-87
2021/06/18 07:47:23;;;;;;;19.15;4.53;;;40.90;54.10;;;;;;5016057;28;20057;-87
2021/06/18 07:49:51;;;;;;;7.75;3.67;;;41.80;53.90;;;;;;5016549;28;20088;-88
2021/06/18 07:52:18;;;;;;;14.45;4.35;;;41.70;52.50;;;;;;5026778;28;20124;-88
2021/06/18 07:54:46;;;;;;;14.68;4.38;;;42.40;53.10;;;;;;5016278;28;20493;-87
2021/06/18 07:57:13;;;;;;;18.85;5.00;;;42.40;51.90;;;;;;5016114;28;20046;-86
2021/06/18 07:59:39;;;;;;;14.85;4.25;;;42.30;50.90;;;;;;5016166;28;20508;-87
2021/06/18 08:02:06;;;;;;;9.65;4.65;;;43.90;50.50;;;;;;5033331;28;20052;-86
2021/06/18 08:04:48;;;;;;;7.43;3.38;;;45.50;48.10;;;;;;5018407;28;20099;-87
2021/06/18 08:07:15;;;;;;;3.90;3.08;;;46.50;45.90;;;;;;5015733;28;20147;-86
2021/06/18 08:09:42;;;;;;;12.68;3.17;;;47.00;45.20;;;;;;5033388;28;20140;-87
2021/06/18 08:12:09;;;;;;;2.55;2.22;;;48.00;43.70;;;;;;5016044;28;20055;-88
2021/06/18 08:14:36;;;;;;;6.15;2.08;;;47.90;42.00;;;;;;5016019;28;20045;-88
2021/06/18 08:17:03;;;;;;;3.65;2.40;;;48.60;42.50;;;;;;5032925;28;20478;-87
2021/06/18 08:19:30;;;;;;;3.30;2.00;;;48.60;41.30;;;;;;5018972;28;20050;-86
2021/06/18 08:21:57;;;;;;;3.00;1.90;;;49.20;40.80;;;;;;5036646;28;20128;-87
2021/06/18 08:24:25;;;;;;;5.78;2.47;;;49.10;39.80;;;;;;5019391;28;20072;-88
2021/06/18 08:26:51;;;;;;;8.10;3.08;;;48.60;39.50;;;;;;5019261;28;20045;-88
2021/06/18 08:29:18;;;;;;;6.45;2.55;;;47.70;40.50;;;;;;5026894;28;20089;-87
2021/06/18 08:31:45;;;;;;;7.13;2.72;;;47.20;40.80;;;;;;5061061;28;20093;-90
2021/06/18 08:34:12;;;;;;;6.20;2.70;;;46.70;40.00;;;;;;5042262;28;20470;-88
2021/06/18 08:36:39;;;;;;;5.93;3.08;;;47.00;41.60;;;;;;5019011;28;20060;-89
2021/06/18 08:39:07;;;;;;;5.97;2.90;;;46.40;42.50;;;;;;5019087;28;20550;-91
2021/06/18 08:41:35;;;;;;;5.32;2.78;;;46.60;41.60;;;;;;5018415;28;20140;-87
2021/06/18 08:44:02;;;;;;;7.72;2.30;;;46.60;40.60;;;;;;5024642;28;20133;-89
2021/06/18 08:46:30;;;;;;;2.72;2.22;;;46.70;41.00;;;;;;5016480;28;20058;-88
2021/06/18 08:48:57;;;;;;;7.20;1.83;;;46.70;40.00;;;;;;5028276;28;20057;-89
2021/06/18 08:51:24;;;;;;;5.22;2.05;;;47.60;39.10;;;;;;5005907;28;20556;-91
2021/06/18 08:53:51;;;;;;;2.63;1.40;;;46.50;38.50;;;;;;5019247;28;20092;-87
2021/06/18 08:56:19;;;;;;;3.85;1.60;;;47.40;37.40;;;;;;5036367;28;20140;-87
2021/06/18 08:58:46;;;;;;;1.50;1.38;;;48.80;35.50;;;;;;5019318;28;20045;-86
2021/06/18 09:01:13;;;;;;;7.07;1.73;;;49.80;35.10;;;;;;5036253;28;20052;-86
2021/06/18 09:03:48;;;;;;;1.10;1.10;;;49.60;34.60;;;;;;5020920;28;20379;-88
2021/06/18 09:06:29;;;;;;;1.88;1.20;;;49.10;32.50;;;;;;5019748;28;20132;-87
2021/06/18 09:09:08;;;;;;;4.95;1.90;;;50.00;33.80;;;;;;5018779;28;20056;-86
2021/06/18 09:11:36;;;;;;;2.75;1.15;;;50.00;33.80;;;;;;5036407;28;20049;-88
2021/06/18 09:14:17;;;;;;;2.90;1.27;;;51.30;32.30;;;;;;5017896;28;20049;-86
2021/06/18 09:17:13;;;;;;;3.55;1.77;;;49.70;32.20;;;;;;5019862;28;20486;-90
2021/06/18 09:19:46;;;;;;;2.78;1.30;;;49.70;32.20;;;;;;5018461;28;20459;-87
2021/06/18 09:22:14;;;;;;;;;;;48.90;32.90;;;;;;5020084;28;20541;-87
2021/06/18 09:24:45;;;;;;;30.15;5.05;;;47.70;33.80;;;;;;5018176;28;19925;-88
2021/06/18 09:27:13;;;;;;;5.95;2.00;;;46.70;34.70;;;;;;5018263;28;20049;-88
2021/06/18 09:29:41;;;;;;;4.25;1.70;;;47.30;35.40;;;;;;5018028;28;20056;-89
2021/06/18 09:32:11;;;;;;;3.03;1.38;;;47.90;35.00;;;;;;5017909;28;20077;-87
2021/06/18 09:35:01;;;;;;;3.40;1.38;;;48.10;34.40;;;;;;5017866;28;20581;-87
2021/06/18 09:37:42;;;;;;;3.35;1.33;;;49.80;34.10;;;;;;5017870;28;20091;-89
2021/06/18 09:40:16;;;;;;;33.20;4.45;;;50.00;33.20;;;;;;5018023;28;20049;-88
2021/06/18 09:42:52;;;;;;;1.38;1.33;;;49.20;33.30;;;;;;5017956;28;20050;-88
2021/06/18 09:45:41;;;;;;;1.50;1.40;;;49.10;32.90;;;;;;5018399;28;20050;-86
2021/06/18 09:48:17;;;;;;;6.18;1.73;;;48.90;32.90;;;;;;5035161;28;20061;-90
2021/06/18 09:50:57;;;;;;;1.50;1.40;;;48.90;32.70;;;;;;5036350;28;20037;-89
2021/06/18 09:53:26;;;;;;;3.13;1.42;;;48.20;32.90;;;;;;5035868;28;20084;-87
2021/06/18 09:56:13;;;;;;;1.85;1.48;;;46.60;32.80;;;;;;5017817;28;20068;-89
2021/06/18 09:58:41;;;;;;;4.70;1.50;;;47.10;33.30;;;;;;5017510;28;20055;-88
2021/06/18 10:01:13;;;;;;;6.68;2.33;;;47.80;33.00;;;;;;5017343;28;20050;-86
2021/06/18 10:04:16;;;;;;;1.63;1.40;;;48.30;32.70;;;;;;5017771;28;20284;-87
2021/06/18 10:06:43;;;;;;;4.72;1.85;;;49.40;31.40;;;;;;4935589;29;20094;-87
2021/06/18 10:09:13;;;;;;;1.30;1.20;;;50.50;32.00;;;;;;4998771;28;20053;-87
2021/06/18 10:11:45;;;;;;;2.78;1.52;;;48.90;32.60;;;;;;5017394;28;20140;-87
2021/06/18 10:14:13;;;;;;;3.80;1.40;;;47.60;33.30;;;;;;5034706;28;20049;-88
2021/06/18 10:16:41;;;;;;;1.33;1.23;;;47.50;34.20;;;;;;5017117;28;20053;-85
2021/06/18 10:19:08;;;;;;;2.45;1.63;;;47.70;34.30;;;;;;5034612;28;20136;-90
2021/06/18 10:21:56;;;;;;;5.38;1.58;;;46.90;34.10;;;;;;5017505;28;20128;-92
2021/06/18 10:24:32;;;;;;;2.03;1.33;;;45.80;34.90;;;;;;5016855;28;20057;-86
2021/06/18 10:27:00;;;;;;;2.90;1.67;;;46.90;34.90;;;;;;5016979;28;20050;-88
2021/06/18 10:29:39;;;;;;;1.65;1.33;;;47.30;33.90;;;;;;5016929;28;20480;-87
2021/06/18 10:32:29;;;;;;;2.92;1.23;;;48.20;33.10;;;;;;5034076;28;20144;-89
2021/06/18 10:34:57;;;;;;;1.75;1.25;;;48.90;32.70;;;;;;5008850;28;20076;-90
2021/06/18 10:37:27;;;;;;;1.90;1.30;;;48.00;32.40;;;;;;5016565;28;20050;-89
2021/06/18 10:39:56;;;;;;;1.50;1.40;;;47.20;33.30;;;;;;5017234;28;20052;-90
2021/06/18 10:42:24;;;;;;;5.43;1.35;;;46.30;33.20;;;;;;5016496;28;20049;-89
2021/06/18 10:44:52;;;;;;;3.70;1.50;;;46.60;32.90;;;;;;5017050;28;20140;-88
2021/06/18 10:47:25;;;;;;;3.72;1.58;;;46.40;33.50;;;;;;5015735;28;20064;-89
2021/06/18 10:49:54;;;;;;;8.30;1.60;;;47.00;32.80;;;;;;5016217;28;20059;-87
2021/06/18 10:52:23;;;;;;;2.80;1.42;;;47.90;33.60;;;;;;5016527;28;20060;-87
2021/06/18 10:54:55;;;;;;;1.40;1.30;;;47.50;32.80;;;;;;5033829;28;20067;-90
2021/06/18 10:57:24;;;;;;;1.35;1.20;;;47.80;33.50;;;;;;5016682;28;20136;-88
2021/06/18 11:00:22;;;;;;;3.28;1.52;;;47.70;32.50;;;;;;5016738;28;20449;-91
2021/06/18 11:02:49;;;;;;;1.95;1.50;;;47.40;33.70;;;;;;5011229;28;20414;-85
2021/06/18 11:05:25;;;;;;;3.85;1.50;;;45.90;34.20;;;;;;5016542;28;20131;-87
2021/06/18 11:08:13;;;;;;;2.25;1.83;;;46.90;32.80;;;;;;5017857;28;20064;-85
2021/06/18 11:11:00;;;;;;;1.55;1.52;;;45.90;33.30;;;;;;5018663;28;20443;-86
2021/06/18 11:13:27;;;;;;;1.73;1.20;;;46.90;34.20;;;;;;5041955;28;20107;-87
2021/06/18 11:15:55;;;;;;;2.60;1.30;;;48.20;33.00;;;;;;5016430;28;20046;-88
2021/06/18 11:18:32;;;;;;;1.42;1.42;;;47.00;33.30;;;;;;5016443;28;20453;-86
2021/06/18 11:21:00;;;;;;;1.90;1.45;;;45.70;32.90;;;;;;5016620;28;20136;-88
2021/06/18 11:23:34;;;;;;;2.05;1.58;;;44.50;35.00;;;;;;5016328;28;20103;-89
2021/06/18 11:26:13;;;;;;;2.10;1.52;;;44.00;34.90;;;;;;5017075;28;20057;-90
2021/06/18 11:28:43;;;;;;;4.32;1.40;;;42.90;35.20;;;;;;5017515;28;20045;-91
2021/06/18 11:31:13;;;;;;;1.38;1.38;;;41.90;36.00;;;;;;5017817;28;20506;-87
2021/06/18 11:33:46;;;;;;;1.60;1.50;;;41.10;36.80;;;;;;5016468;28;20052;-86
2021/06/18 11:36:30;;;;;;;;;;;40.80;37.30;;;;;;5016681;28;20045;-87
2021/06/18 11:39:09;;;;;;;1.38;1.33;;;40.80;37.30;;;;;;5033677;28;19920;-87
2021/06/18 11:41:43;;;;;;;3.05;1.48;;;40.60;37.30;;;;;;5016230;28;20075;-91
2021/06/18 11:44:12;;;;;;;3.65;1.90;;;40.80;36.80;;;;;;5016394;28;20049;-89
2021/06/18 11:46:38;;;;;;;1.88;1.27;;;41.00;37.40;;;;;;5016100;28;20558;-88
2021/06/18 11:49:20;;;;;;;1.27;1.20;;;40.70;36.80;;;;;;5015704;28;20049;-87
2021/06/18 11:51:57;;;;;;;2.65;1.38;;;40.90;37.10;;;;;;5015960;28;20055;-85
2021/06/18 11:54:33;;;;;;;5.85;1.98;;;40.50;36.80;;;;;;5018936;28;20053;-85
2021/06/18 11:57:20;;;;;;;3.42;1.70;;;39.60;36.70;;;;;;5020268;28;20049;-90
2021/06/18 11:59:55;;;;;;;6.93;1.52;;;38.60;37.50;;;;;;5009414;28;20049;-88
2021/06/18 12:02:24;;;;;;;2.25;1.50;;;37.70;38.10;;;;;;5021929;28;20060;-87
2021/06/18 12:05:09;;;;;;;1.40;1.30;;;37.40;39.00;;;;;;5020291;28;20140;-88
2021/06/18 12:07:37;;;;;;;1.60;1.50;;;37.80;39.70;;;;;;5020061;28;20049;-91
2021/06/18 12:10:06;;;;;;;1.20;1.20;;;37.70;38.90;;;;;;5019839;28;20045;-90
2021/06/18 12:12:50;;;;;;;1.50;1.40;;;37.40;39.50;;;;;;5019964;28;20049;-89
2021/06/18 12:15:23;;;;;;;1.33;1.23;;;37.10;40.00;;;;;;5019645;28;20053;-87
2021/06/18 12:17:52;;;;;;;1.52;1.40;;;36.90;40.10;;;;;;5019591;28;20476;-88
2021/06/18 12:20:44;;;;;;;3.80;1.83;;;36.70;40.00;;;;;;5019601;28;20049;-89
2021/06/18 12:23:17;;;;;;;3.15;1.40;;;36.50;40.80;;;;;;5035924;28;20060;-89
2021/06/18 12:25:44;;;;;;;1.92;1.67;;;35.90;40.40;;;;;;5019233;28;20110;-87
2021/06/18 12:28:16;;;;;;;1.45;1.38;;;35.50;41.60;;;;;;5019196;28;20041;-86
2021/06/18 12:30:43;;;;;;;1.63;1.52;;;34.90;42.10;;;;;;5020921;28;20128;-86
2021/06/18 12:33:10;;;;;;;1.50;1.40;;;34.60;44.30;;;;;;5038567;28;20050;-86
2021/06/18 12:35:43;;;;;;;1.55;1.30;;;34.40;44.50;;;;;;5021404;28;20475;-85
2021/06/18 12:38:12;;;;;;;5.57;1.60;;;34.20;43.50;;;;;;5036414;28;20490;-86
2021/06/18 12:40:44;;;;;;;3.42;1.42;;;34.20;44.80;;;;;;5036404;28;20140;-86
2021/06/18 12:43:13;;;;;;;3.30;1.50;;;34.30;43.70;;;;;;5018839;28;20405;-86
2021/06/18 12:45:53;;;;;;;3.35;1.75;;;34.60;45.40;;;;;;5036126;28;20049;-88
2021/06/18 12:48:28;;;;;;;1.50;1.40;;;34.90;43.60;;;;;;5019574;28;20068;-87
2021/06/18 12:50:59;;;;;;;2.80;1.20;;;35.10;42.60;;;;;;5019341;28;20049;-88
2021/06/18 12:53:36;;;;;;;2.10;1.40;;;35.30;42.50;;;;;;5044294;28;20049;-87
2021/06/18 12:56:10;;;;;;;4.22;2.03;;;35.30;41.00;;;;;;5018676;28;20099;-87
2021/06/18 12:58:37;;;;;;;1.70;1.60;;;35.40;42.10;;;;;;5018554;28;20411;-89